Airfield :
LOGIN :

Register | Disclaimer

   EN    FR    IT 

 










Legend :    VFR   Marginal VFR   IFR   Intensive IFR   Very Intensive IFR
Visi :
Ceiling :
>= 8 km
>= 3000ft
5 to 8 km
1000 to 3000 ft
1500m to 5 km
500 to 1000 ft
800 to 1500m
200 to 500 ft
< 800m
< 200 ft
Symbols :   Thunderstorms  Fog  Heavy snow  Heavy precipitations  Wind > 20 kt
SIGMETs :     Misc.  Thunderstorms  Icing  Turbulence  Mountain Waves  Volcanic Ashes







- Airport Elevation : 120 ft
- IATA code : MME
- Download approach charts


EGNV - Durham Tees valley

CURRENT METAR :
  • 301620Z 10017G27KT CAVOK 13/05 Q1003

EXPIRED METARs :
  • 301550Z 08017KT CAVOK 13/05 Q1003
  • 301520Z 09020KT CAVOK 15/05 Q1003
  • 301450Z 09019KT CAVOK 15/04 Q1003
  • 301420Z 11014G25KT CAVOK 15/04 Q1004
  • 301350Z 12013KT 9999 FEW047 15/05 Q1004

TAF TAF EGNV
Valid from the 30 at 15:00 until the 30 at 21:00 UTC


301353Z 3015/3021 12013KT 9999 FEW035
TEMPO 3015/3018 13020G30KT
ATIS : +44 9012 018 111
No reported NOTAMs for that airfield.



MET'MAP, your aeronautical weather chart ! - Copyright ORBIFLY December 2007 - Disclaimer

ORBIFLY MET'MAP TEAM :

Programming & Development : Alexandra Zaïnal
Concept & Development : Baudouin d'Aumeries
Co-Development & Prog : Marc-Olivier Méhu
Technical & hardware support : Manuel Goepfert

Contact : metmap@orbifly.com




SOURCES & CREDITS :

   NOAA